Time;durP1;ratioP1;P1;durP2;ratioP2;P2;SDS_P1;SDS_P2;PMS_P1;PMS_P2;Temp;Humidity;BMP_temperature;BMP_pressure;BME280_temperature;BME280_humidity;BME280_pressure;Samples;Min_cycle;Max_cycle;Signal;HPM_P1;HPM_P2
2023/08/02 00:00:56;;;;;;;5.55;5.05;;;;;;;25.82;53.28;98863.34;5091521;28;20020;-42
2023/08/02 00:03:22;;;;;;;6.00;5.40;;;;;;;26.04;52.70;98867.78;5091610;28;20047;-42
2023/08/02 00:05:54;;;;;;;7.00;5.47;;;;;;;25.92;53.23;98863.81;5091526;28;20492;-43
2023/08/02 00:08:20;;;;;;;7.18;5.60;;;;;;;25.61;54.24;98858.59;5091154;28;20024;-41
2023/08/02 00:10:46;;;;;;;5.88;5.28;;;;;;;25.79;53.84;98861.28;5091270;28;20050;-43
2023/08/02 00:13:11;;;;;;;5.93;5.32;;;;;;;25.98;53.35;98853.53;5091038;28;20031;-44
2023/08/02 00:15:38;;;;;;;7.15;5.35;;;;;;;25.83;53.83;98854.03;5091106;28;20024;-43
2023/08/02 00:18:03;;;;;;;6.18;5.30;;;;;;;25.98;53.62;98855.47;5091293;28;20019;-42
2023/08/02 00:20:29;;;;;;;6.97;5.43;;;;;;;26.22;53.10;98857.59;5090819;28;20349;-42
2023/08/02 00:22:54;;;;;;;5.90;5.30;;;;;;;26.50;52.34;98864.16;5089849;28;20427;-42
2023/08/02 00:25:21;;;;;;;7.35;5.32;;;;;;;26.23;52.92;98865.44;5089899;28;20016;-43
2023/08/02 00:27:46;;;;;;;8.07;5.65;;;;;;;26.14;53.35;98870.94;5090443;28;20134;-43
2023/08/02 00:30:12;;;;;;;5.95;5.28;;;;;;;26.12;53.56;98880.56;5090983;28;20077;-42
2023/08/02 00:32:44;;;;;;;7.13;5.47;;;;;;;26.02;53.82;98878.22;5091126;28;20019;-42
2023/08/02 00:35:10;;;;;;;5.82;4.85;;;;;;;25.80;54.51;98876.47;5091499;28;20493;-44
2023/08/02 00:37:35;;;;;;;23.58;19.52;;;;;;;25.95;54.06;98873.28;5091268;28;20044;-42
2023/08/02 00:40:01;;;;;;;7.03;5.72;;;;;;;25.89;54.42;98871.81;5091512;28;20058;-41
2023/08/02 00:42:26;;;;;;;6.32;5.68;;;;;;;25.88;54.39;98875.66;5091453;28;20424;-41
2023/08/02 00:44:52;;;;;;;6.60;5.53;;;;;;;26.00;54.09;98870.34;5091047;28;20043;-43
2023/08/02 00:47:17;;;;;;;7.25;5.40;;;;;;;26.09;53.79;98876.56;5091628;28;20027;-43
2023/08/02 00:49:47;;;;;;;7.22;5.45;;;;;;;25.97;54.44;98881.94;5091060;28;20023;-42
2023/08/02 00:52:12;;;;;;;5.88;5.10;;;;;;;26.10;54.06;98885.53;5091077;28;20020;-43
2023/08/02 00:54:39;;;;;;;6.35;5.50;;;;;;;25.97;54.61;98883.81;5091014;28;20024;-42
2023/08/02 00:57:05;;;;;;;5.82;5.15;;;;;;;26.12;54.24;98886.81;5090943;28;20020;-41
2023/08/02 00:59:30;;;;;;;6.57;5.28;;;;;;;26.13;54.24;98874.78;5090879;28;20035;-42
2023/08/02 01:01:56;;;;;;;7.30;5.57;;;;;;;26.23;53.74;98884.50;5091074;28;20031;-42
2023/08/02 01:04:22;;;;;;;6.13;5.28;;;;;;;26.27;53.77;98896.38;5090903;28;20036;-41
2023/08/02 01:07:00;;;;;;;7.60;5.07;;;;;;;26.37;53.39;98900.66;5090594;28;20020;-41
2023/08/02 01:09:42;;;;;;;6.82;5.25;;;;;;;26.22;53.91;98898.50;5090677;28;20024;-41
2023/08/02 01:12:10;;;;;;;7.15;5.28;;;;;;;26.18;53.94;98894.81;5090920;28;20464;-41
2023/08/02 01:14:40;;;;;;;7.13;5.22;;;;;;;25.77;55.20;98896.22;5090625;28;20024;-43
2023/08/02 01:17:07;;;;;;;7.00;5.20;;;;;;;25.52;56.02;98898.69;5090553;28;20024;-42
2023/08/02 01:19:33;;;;;;;6.15;5.13;;;;;;;25.65;55.91;98894.97;5090712;28;20089;-42
2023/08/02 01:21:59;;;;;;;6.05;5.45;;;;;;;25.52;56.42;98898.69;5090764;28;20106;-41
2023/08/02 01:24:31;;;;;;;7.00;5.43;;;;;;;25.28;57.06;98899.97;5090851;28;20024;-41
2023/08/02 01:27:00;;;;;;;5.85;5.25;;;;;;;25.96;55.24;98895.88;5090708;28;20050;-41
2023/08/02 01:29:28;;;;;;;6.20;5.15;;;;;;;26.32;53.98;98898.91;5090761;28;20032;-42
2023/08/02 01:31:56;;;;;;;6.72;5.85;;;;;;;26.49;53.33;98910.88;5090681;28;20024;-42
2023/08/02 01:34:22;;;;;;;6.68;5.80;;;;;;;26.58;52.96;98903.44;5090787;28;20031;-42
2023/08/02 01:36:48;;;;;;;6.82;5.18;;;;;;;26.63;52.78;98908.72;5090295;28;20119;-41
2023/08/02 01:39:14;;;;;;;6.82;5.90;;;;;;;26.64;52.99;98906.81;5090678;28;20517;-41
2023/08/02 01:41:40;;;;;;;7.15;5.90;;;;;;;26.75;52.57;98909.91;5090381;28;20020;-44
2023/08/02 01:44:05;;;;;;;8.02;6.20;;;;;;;26.24;53.98;98915.31;5090720;28;20089;-43
2023/08/02 01:46:31;;;;;;;7.72;6.15;;;;;;;26.19;53.98;98915.50;5090160;28;20028;-42
2023/08/02 01:48:56;;;;;;;6.97;6.13;;;;;;;26.20;54.12;98912.44;5090489;28;20028;-44
2023/08/02 01:51:22;;;;;;;8.23;6.20;;;;;;;26.31;53.68;98921.88;5090587;28;20051;-41
2023/08/02 01:53:49;;;;;;;8.05;6.57;;;;;;;26.23;53.84;98919.16;5090566;28;20376;-42
2023/08/02 01:56:14;;;;;;;6.78;6.07;;;;;;;26.30;53.60;98919.47;5090577;28;20028;-42
2023/08/02 01:58:40;;;;;;;7.05;6.35;;;;;;;26.33;53.62;98916.06;5090400;28;20032;-42
2023/08/02 02:01:05;;;;;;;7.10;6.40;;;;;;;26.17;54.06;98915.81;5090182;28;20027;-44
2023/08/02 02:03:30;;;;;;;7.90;6.97;;;;;;;26.24;53.81;98918.06;5090182;28;20114;-42
2023/08/02 02:05:56;;;;;;;7.45;6.65;;;;;;;26.12;54.21;98916.00;5090288;28;20047;-45
2023/08/02 02:08:22;;;;;;;8.57;6.90;;;;;;;25.85;54.95;98912.53;5090463;28;20030;-42
2023/08/02 02:10:52;;;;;;;8.68;6.80;;;;;;;25.96;54.90;98912.22;5089897;28;20056;-43
2023/08/02 02:13:19;;;;;;;7.43;6.55;;;;;;;25.73;55.42;98915.13;5090251;28;20028;-42
2023/08/02 02:15:44;;;;;;;7.10;6.35;;;;;;;25.63;55.84;98905.38;5090075;28;20077;-41
2023/08/02 02:18:10;;;;;;;7.32;6.30;;;;;;;25.80;55.44;98914.63;5090050;28;20074;-42
2023/08/02 02:20:35;;;;;;;7.75;6.50;;;;;;;25.72;55.69;98919.78;5092351;28;20028;-43
2023/08/02 02:23:01;;;;;;;8.02;6.85;;;;;;;25.81;55.06;98914.31;5094118;28;20028;-43
2023/08/02 02:25:26;;;;;;;7.40;6.60;;;;;;;25.75;55.53;98921.06;5093950;28;20064;-42
2023/08/02 02:27:51;;;;;;;7.65;6.57;;;;;;;25.65;55.99;98929.59;5093542;28;20035;-43
2023/08/02 02:30:17;;;;;;;8.73;6.97;;;;;;;25.51;56.21;98929.75;5093718;28;20016;-43
2023/08/02 02:32:42;;;;;;;10.15;6.50;;;;;;;25.64;55.75;98936.16;5093858;28;20392;-43
2023/08/02 02:35:12;;;;;;;7.22;6.50;;;;;;;25.79;55.69;98934.84;5093601;28;20088;-42
2023/08/02 02:37:38;;;;;;;8.73;6.43;;;;;;;25.81;55.71;98929.88;5093468;28;20094;-43
2023/08/02 02:40:04;;;;;;;8.30;6.40;;;;;;;25.81;55.56;98936.09;5093698;28;20081;-42
2023/08/02 02:42:29;;;;;;;7.65;6.38;;;;;;;25.66;55.92;98934.69;5093557;28;20024;-41
2023/08/02 02:44:55;;;;;;;7.93;6.70;;;;;;;25.48;56.68;98938.56;5093350;28;20107;-40
2023/08/02 02:47:20;;;;;;;6.90;6.20;;;;;;;25.71;56.14;98944.63;5093608;28;20032;-41
2023/08/02 02:49:46;;;;;;;6.82;6.13;;;;;;;25.70;55.75;98948.47;5093548;28;20054;-42
2023/08/02 02:52:11;;;;;;;7.47;6.60;;;;;;;25.67;56.37;98957.31;5093361;28;20039;-43
2023/08/02 02:54:37;;;;;;;6.68;5.88;;;;;;;25.50;56.43;98941.78;5093431;28;20028;-45
2023/08/02 02:57:03;;;;;;;11.10;6.55;;;;;;;25.70;56.04;98956.63;5093368;28;20032;-44
2023/08/02 02:59:28;;;;;;;8.63;6.20;;;;;;;25.78;55.82;98955.03;5093050;28;20024;-40
2023/08/02 03:01:54;;;;;;;8.27;6.47;;;;;;;25.58;56.51;98948.34;5093137;28;20016;-43
2023/08/02 03:04:19;;;;;;;7.60;5.97;;;;;;;25.28;57.66;98957.16;5093073;28;20491;-44
2023/08/02 03:06:44;;;;;;;6.90;6.20;;;;;;;25.34;57.33;98960.50;5093149;28;20165;-41
2023/08/02 03:09:10;;;;;;;8.90;6.63;;;;;;;25.38;57.24;98950.59;5093307;28;20080;-41
2023/08/02 03:11:35;;;;;;;23.55;19.05;;;;;;;25.51;56.61;98959.72;5093184;28;20024;-42
2023/08/02 03:14:01;;;;;;;9.77;7.88;;;;;;;25.13;57.63;98965.75;5093088;28;20030;-44
2023/08/02 03:16:26;;;;;;;9.32;7.30;;;;;;;24.87;58.60;98954.88;5093118;28;20305;-43
2023/08/02 03:18:54;;;;;;;8.27;6.60;;;;;;;24.84;58.95;98958.22;5092905;28;20031;-43
2023/08/02 03:21:20;;;;;;;7.78;6.18;;;;;;;24.98;58.43;98956.97;5093018;28;20356;-42
2023/08/02 03:23:45;;;;;;;7.40;6.15;;;;;;;24.93;58.93;98957.09;5093060;28;20024;-46
2023/08/02 03:26:11;;;;;;;7.03;6.10;;;;;;;25.12;57.89;98956.78;5092662;28;20051;-41
2023/08/02 03:28:36;;;;;;;6.88;6.18;;;;;;;25.12;58.30;98956.78;5092779;28;20028;-43
2023/08/02 03:31:01;;;;;;;8.50;6.00;;;;;;;25.17;58.04;98950.41;5092599;28;20093;-41
2023/08/02 03:33:27;;;;;;;7.80;6.50;;;;;;;25.31;57.34;98942.13;5092897;28;20035;-44
2023/08/02 03:35:52;;;;;;;7.07;6.38;;;;;;;25.42;57.16;98954.28;5092686;28;20059;-41
2023/08/02 03:38:18;;;;;;;7.05;6.18;;;;;;;25.46;57.13;98957.16;5092698;28;20024;-42
2023/08/02 03:40:43;;;;;;;6.97;5.82;;;;;;;25.32;57.62;98966.31;5092576;28;20453;-43
2023/08/02 03:43:09;;;;;;;8.43;6.93;;;;;;;25.43;57.16;98950.41;5092369;28;20028;-41
2023/08/02 03:45:34;;;;;;;7.57;6.80;;;;;;;25.31;57.33;98964.69;5092319;28;20453;-41
2023/08/02 03:48:00;;;;;;;8.13;6.53;;;;;;;24.36;60.60;98967.94;5092368;28;20106;-42
2023/08/02 03:50:26;;;;;;;8.60;6.68;;;;;;;24.28;60.99;98964.09;5092458;28;20115;-41
2023/08/02 03:52:52;;;;;;;7.82;6.57;;;;;;;24.45;60.56;98968.00;5074032;28;20453;-42
2023/08/02 03:55:18;;;;;;;7.45;6.45;;;;;;;24.63;60.39;98974.31;5091820;28;20032;-42
2023/08/02 03:57:43;;;;;;;8.30;6.18;;;;;;;24.76;60.15;98966.03;5091964;28;20016;-41
2023/08/02 04:00:09;;;;;;;10.32;7.00;;;;;;;24.94;59.68;98976.94;5091991;28;20085;-41
2023/08/02 04:02:35;;;;;;;7.10;6.40;;;;;;;25.04;59.26;98970.41;5091874;28;20055;-40
2023/08/02 04:05:00;;;;;;;8.68;6.68;;;;;;;25.20;58.54;98968.03;5091888;28;20080;-43
2023/08/02 04:07:26;;;;;;;10.32;6.38;;;;;;;25.34;58.07;98963.22;5092321;28;20484;-42
2023/08/02 04:09:51;;;;;;;7.60;6.55;;;;;;;25.46;57.77;98970.78;5091929;28;20028;-41
2023/08/02 04:12:17;;;;;;;9.32;5.95;;;;;;;25.48;57.64;98974.78;5092122;28;20024;-42
2023/08/02 04:14:44;;;;;;;6.50;5.78;;;;;;;25.73;57.11;98970.41;5092260;28;20028;-43
2023/08/02 04:17:09;;;;;;;6.95;6.20;;;;;;;25.86;56.44;98968.66;5091868;28;20415;-42
2023/08/02 04:19:34;;;;;;;15.13;11.65;;;;;;;25.80;56.67;98972.66;5091896;28;20028;-41
2023/08/02 04:22:00;;;;;;;34.90;25.02;;;;;;;25.97;56.44;98973.75;5091818;28;20100;-41
2023/08/02 04:24:25;;;;;;;7.82;6.00;;;;;;;26.26;55.97;98976.56;5092092;28;20381;-42
2023/08/02 04:26:51;;;;;;;7.13;5.80;;;;;;;26.66;54.83;98973.53;5092105;28;20110;-42
2023/08/02 04:29:16;;;;;;;6.45;5.80;;;;;;;26.89;53.54;98975.97;5091872;28;20142;-44
2023/08/02 04:31:42;;;;;;;6.88;5.53;;;;;;;27.18;52.80;98974.34;5091994;28;20035;-41
2023/08/02 04:34:07;;;;;;;6.65;5.95;;;;;;;27.41;52.10;98974.81;5091868;28;20111;-42
2023/08/02 04:36:32;;;;;;;6.38;5.30;;;;;;;27.60;51.94;98977.06;5091433;28;20052;-42
2023/08/02 04:39:02;;;;;;;5.95;5.32;;;;;;;27.82;51.48;98967.72;5091503;28;20028;-43
2023/08/02 04:41:27;;;;;;;9.90;8.05;;;;;;;27.97;51.00;98960.81;5091301;28;20460;-43
2023/08/02 04:43:52;;;;;;;11.50;7.85;;;;;;;28.15;50.42;98970.41;5090847;28;20024;-42
2023/08/02 04:46:18;;;;;;;5.80;5.30;;;;;;;28.20;49.65;98970.22;5091050;28;20024;-43
2023/08/02 04:48:43;;;;;;;10.85;5.28;;;;;;;28.27;49.35;98964.97;5091140;28;20420;-42
2023/08/02 04:51:10;;;;;;;5.75;5.07;;;;;;;28.44;48.87;98963.16;5091255;28;20551;-42
2023/08/02 04:53:36;;;;;;;6.18;5.18;;;;;;;28.72;48.42;98970.72;5090943;28;20388;-43
2023/08/02 04:56:02;;;;;;;7.32;5.18;;;;;;;28.97;47.79;98971.47;5091022;28;20020;-42
2023/08/02 04:58:27;;;;;;;6.13;5.13;;;;;;;29.16;47.15;98968.16;5091192;28;20043;-44
2023/08/02 05:00:53;;;;;;;7.70;5.30;;;;;;;29.21;46.98;98968.72;5091474;28;20028;-43
2023/08/02 05:03:18;;;;;;;5.75;5.15;;;;;;;29.24;47.13;98972.69;5091207;28;20515;-42
2023/08/02 05:05:44;;;;;;;8.90;5.20;;;;;;;29.43;46.65;98974.78;5091043;28;20024;-44
2023/08/02 05:08:09;;;;;;;7.70;5.45;;;;;;;29.62;45.97;98974.16;5090959;28;20055;-40
2023/08/02 05:10:37;;;;;;;6.72;4.95;;;;;;;29.78;45.35;98974.22;5091141;28;20468;-42
2023/08/02 05:13:05;;;;;;;6.15;5.07;;;;;;;29.60;45.84;98974.50;5090940;28;20028;-42
2023/08/02 05:15:36;;;;;;;7.03;5.30;;;;;;;29.51;46.51;98979.34;5091277;28;20024;-43
2023/08/02 05:18:01;;;;;;;7.82;5.30;;;;;;;30.17;44.81;98974.44;5091154;28;20111;-43
2023/08/02 05:20:31;;;;;;;7.82;5.25;;;;;;;30.72;43.52;98974.63;5090952;28;20460;-42
2023/08/02 05:22:56;;;;;;;8.68;5.18;;;;;;;30.64;43.85;98986.59;5090889;28;20024;-43
2023/08/02 05:25:21;;;;;;;6.65;5.45;;;;;;;30.43;44.05;98984.16;5090851;28;20063;-43
2023/08/02 05:27:47;;;;;;;5.97;5.20;;;;;;;30.13;45.04;98976.31;5090782;28;20107;-44
2023/08/02 05:30:12;;;;;;;7.20;5.18;;;;;;;30.25;44.80;98987.19;5091084;28;20020;-43
2023/08/02 05:32:38;;;;;;;10.40;5.50;;;;;;;30.79;43.67;98991.28;5090481;28;20122;-42
2023/08/02 05:35:07;;;;;;;11.40;5.18;;;;;;;31.69;41.72;99002.25;5087407;28;20024;-43
2023/08/02 05:37:33;;;;;;;8.15;4.90;;;;;;;31.70;41.50;98995.59;5070322;28;20189;-44
2023/08/02 05:39:58;;;;;;;7.68;5.63;;;;;;;31.80;41.01;98994.22;5070317;28;20048;-43
2023/08/02 05:42:24;;;;;;;6.72;5.22;;;;;;;31.52;41.42;99003.50;5070294;28;20036;-43
2023/08/02 05:44:49;;;;;;;7.03;5.25;;;;;;;31.29;41.64;98997.88;5073140;28;20024;-42
2023/08/02 05:47:15;;;;;;;7.13;6.03;;;;;;;31.53;41.51;98987.81;5090495;28;20020;-43
2023/08/02 05:49:40;;;;;;;9.95;6.40;;;;;;;32.20;40.14;98989.47;5090774;28;20012;-43
2023/08/02 05:52:06;;;;;;;10.45;6.22;;;;;;;32.66;39.67;98994.94;5090604;28;20008;-42
2023/08/02 05:54:31;;;;;;;11.38;6.13;;;;;;;32.86;38.50;98992.88;5091921;28;20340;-43
2023/08/02 05:56:57;;;;;;;7.03;5.40;;;;;;;32.54;39.44;98996.72;5094246;28;20036;-44
2023/08/02 05:59:22;;;;;;;8.82;5.97;;;;;;;32.53;38.72;98995.09;5094013;28;20028;-42
2023/08/02 06:01:47;;;;;;;7.93;6.15;;;;;;;32.56;38.54;98990.84;5094002;28;20119;-42
2023/08/02 06:04:13;;;;;;;11.30;6.32;;;;;;;32.25;39.42;98991.88;5094361;28;20030;-42
2023/08/02 06:06:38;;;;;;;7.22;6.28;;;;;;;32.86;38.37;98998.38;5094635;28;20024;-43
2023/08/02 06:09:04;;;;;;;8.55;6.50;;;;;;;33.55;37.05;98997.34;5094245;28;20028;-43
2023/08/02 06:11:29;;;;;;;9.70;6.45;;;;;;;33.64;37.32;98997.88;5093752;28;20086;-43
2023/08/02 06:13:55;;;;;;;8.73;6.82;;;;;;;33.62;36.60;98997.44;5093697;28;20032;-43
2023/08/02 06:16:22;;;;;;;9.50;8.02;;;;;;;33.45;36.93;98996.03;5093142;28;20023;-44
2023/08/02 06:18:48;;;;;;;10.40;7.95;;;;;;;33.65;36.16;98999.47;5092073;28;20028;-43
2023/08/02 06:21:13;;;;;;;9.15;7.18;;;;;;;34.00;35.39;98999.03;5092060;28;20411;-43
2023/08/02 06:23:38;;;;;;;8.77;6.82;;;;;;;34.57;34.06;98998.00;5092061;28;20467;-42
2023/08/02 06:26:04;;;;;;;9.95;7.53;;;;;;;35.09;34.03;98981.34;5091543;28;20027;-42
2023/08/02 06:28:29;;;;;;;8.57;7.25;;;;;;;34.68;33.88;98987.06;5091752;28;20032;-45
2023/08/02 06:30:55;;;;;;;8.85;6.95;;;;;;;34.39;34.56;98990.38;5092287;28;20023;-43
2023/08/02 06:33:20;;;;;;;8.05;7.10;;;;;;;33.78;35.32;98991.75;5092565;28;20020;-42
2023/08/02 06:35:45;;;;;;;9.18;7.40;;;;;;;33.72;34.93;98988.53;5092668;28;20055;-43
2023/08/02 06:38:11;;;;;;;10.60;6.88;;;;;;;33.83;34.95;98996.91;5092542;28;20479;-42
2023/08/02 06:40:36;;;;;;;7.53;6.68;;;;;;;33.74;35.02;98990.88;5093247;28;20111;-45
2023/08/02 06:43:02;;;;;;;8.85;7.18;;;;;;;33.75;34.85;98996.03;5092974;28;20531;-47
2023/08/02 06:45:27;;;;;;;7.57;6.85;;;;;;;34.21;34.38;98984.66;5093097;28;20028;-44
2023/08/02 06:47:53;;;;;;;8.40;7.60;;;;;;;34.21;33.54;98981.13;5093338;28;20026;-42
2023/08/02 06:50:18;;;;;;;7.72;6.70;;;;;;;33.31;35.17;98988.41;5093477;28;20042;-42
2023/08/02 06:52:43;;;;;;;9.75;7.50;;;;;;;32.91;36.22;98982.31;5093241;28;20532;-44
2023/08/02 06:55:09;;;;;;;10.23;7.88;;;;;;;32.68;36.46;98990.66;5093505;28;20429;-42
2023/08/02 06:57:34;;;;;;;8.45;7.53;;;;;;;32.48;36.31;98980.84;5093521;28;20100;-43
2023/08/02 07:00:00;;;;;;;8.15;7.30;;;;;;;32.54;36.99;98990.41;5092769;28;20119;-42
2023/08/02 07:02:25;;;;;;;10.43;8.00;;;;;;;33.15;36.13;98996.06;5092319;28;20028;-44
2023/08/02 07:04:51;;;;;;;8.85;7.50;;;;;;;33.30;35.22;99000.59;5092076;28;20116;-42
2023/08/02 07:07:16;;;;;;;8.65;7.75;;;;;;;33.11;35.86;98996.81;5091784;28;20077;-42
2023/08/02 07:09:42;;;;;;;9.60;7.82;;;;;;;33.11;35.77;99004.28;5092269;28;20049;-44
2023/08/02 07:12:07;;;;;;;9.18;7.90;;;;;;;33.13;35.63;98995.63;5092502;28;20035;-45
2023/08/02 07:14:32;;;;;;;8.50;7.65;;;;;;;33.33;35.36;98988.03;5092340;28;20083;-44
2023/08/02 07:16:58;;;;;;;10.40;8.18;;;;;;;33.17;36.07;98991.78;5092308;28;20032;-45
2023/08/02 07:19:23;;;;;;;9.63;7.68;;;;;;;33.27;35.41;98993.88;5092395;28;20028;-42
2023/08/02 07:21:49;;;;;;;10.45;7.97;;;;;;;33.12;35.83;99000.34;5092348;28;20077;-43
2023/08/02 07:24:14;;;;;;;8.68;7.82;;;;;;;33.10;36.67;98992.47;5092086;28;20409;-42
2023/08/02 07:26:39;;;;;;;9.00;8.00;;;;;;;32.99;36.42;98997.00;5092488;28;20099;-42
2023/08/02 07:29:05;;;;;;;10.80;8.20;;;;;;;33.11;36.42;98991.31;5092432;28;20473;-43
2023/08/02 07:31:30;;;;;;;8.85;7.72;;;;;;;33.33;35.92;98994.34;5091974;28;20099;-43
2023/08/02 07:33:56;;;;;;;8.68;7.70;;;;;;;33.56;35.29;98991.44;5092304;28;20459;-43
2023/08/02 07:36:21;;;;;;;8.48;7.53;;;;;;;33.81;34.91;98985.44;5091935;28;20043;-44
2023/08/02 07:38:47;;;;;;;9.13;8.05;;;;;;;34.06;34.44;98985.69;5091814;28;20036;-43
2023/08/02 07:41:13;;;;;;;9.45;8.52;;;;;;;33.74;34.42;98983.41;5091734;28;20054;-43
2023/08/02 07:43:38;;;;;;;8.60;7.45;;;;;;;34.23;34.15;98985.13;5092134;28;20032;-44
2023/08/02 07:46:04;;;;;;;8.55;7.63;;;;;;;34.50;33.92;98979.41;5092011;28;20032;-41
2023/08/02 07:48:29;;;;;;;9.05;7.60;;;;;;;34.85;33.48;98973.34;5092336;28;20105;-44
2023/08/02 07:50:55;;;;;;;12.27;8.00;;;;;;;34.73;33.54;98973.69;5091790;28;20449;-45
2023/08/02 07:53:20;;;;;;;8.80;7.57;;;;;;;34.86;33.47;98979.66;5091442;28;20107;-42
2023/08/02 07:55:48;;;;;;;8.80;7.90;;;;;;;34.73;33.29;98983.91;5091805;28;20408;-43
2023/08/02 07:58:13;;;;;;;8.73;7.83;;;;;;;34.56;33.68;98977.09;5091599;28;20039;-42
2023/08/02 08:00:39;;;;;;;8.50;7.45;;;;;;;34.74;32.90;98977.22;5091587;28;20027;-41
2023/08/02 08:03:04;;;;;;;9.70;7.80;;;;;;;34.71;33.36;98975.22;5091656;28;20032;-43
2023/08/02 08:05:30;;;;;;;7.88;7.13;;;;;;;34.89;33.42;98970.59;5091432;28;20077;-42
2023/08/02 08:07:56;;;;;;;7.85;7.10;;;;;;;35.16;32.83;98973.88;5091670;28;20024;-43
2023/08/02 08:10:21;;;;;;;10.95;7.65;;;;;;;35.00;32.89;98963.16;5091605;28;20085;-44
2023/08/02 08:12:47;;;;;;;8.80;7.57;;;;;;;35.00;33.42;98967.91;5091480;28;20400;-44
2023/08/02 08:15:12;;;;;;;10.40;8.18;;;;;;;35.11;32.48;98966.00;5091397;28;20131;-43
2023/08/02 08:17:38;;;;;;;9.80;7.38;;;;;;;35.10;32.64;98969.13;5090591;28;20031;-44
2023/08/02 08:20:05;;;;;;;8.88;7.85;;;;;;;35.35;32.29;98963.75;5091445;28;20024;-42
2023/08/02 08:22:30;;;;;;;9.35;7.82;;;;;;;35.23;32.62;98962.13;5091475;28;20024;-43
2023/08/02 08:24:56;;;;;;;9.95;7.75;;;;;;;35.35;32.13;98960.97;5091733;28;20034;-42
2023/08/02 08:27:22;;;;;;;10.80;7.47;;;;;;;35.53;31.86;98961.03;5091153;28;20035;-43
2023/08/02 08:29:47;;;;;;;8.82;7.80;;;;;;;35.35;32.52;98963.75;5090974;28;20032;-43
2023/08/02 08:32:12;;;;;;;8.93;7.55;;;;;;;35.63;32.55;98965.81;5091295;28;20084;-42
2023/08/02 08:34:38;;;;;;;8.10;6.82;;;;;;;36.26;31.81;98955.25;5091644;28;20115;-46
2023/08/02 08:37:03;;;;;;;9.32;7.20;;;;;;;36.40;31.20;98948.91;5090453;28;20149;-45
2023/08/02 08:39:29;;;;;;;7.90;7.10;;;;;;;36.62;30.41;98955.22;5090934;28;20114;-45
2023/08/02 08:41:56;;;;;;;10.50;7.55;;;;;;;36.09;31.13;98950.47;5091096;28;20024;-44
2023/08/02 08:44:22;;;;;;;8.25;7.10;;;;;;;36.43;30.98;98947.34;5091331;28;20058;-43
2023/08/02 08:46:49;;;;;;;7.75;7.05;;;;;;;36.58;30.91;98940.59;5090519;28;20415;-43
2023/08/02 08:49:14;;;;;;;7.63;6.80;;;;;;;36.73;30.65;98944.16;5090925;28;20032;-43
2023/08/02 08:51:45;;;;;;;6.80;6.20;;;;;;;37.13;30.19;98942.06;5090624;28;20441;-44
2023/08/02 08:54:25;;;;;;;7.97;6.68;;;;;;;37.48;29.93;98937.53;5090781;28;20111;-42
2023/08/02 08:56:52;;;;;;;9.55;6.30;;;;;;;37.44;29.96;98934.78;5090903;28;20306;-44
2023/08/02 08:59:18;;;;;;;7.60;6.65;;;;;;;37.69;29.18;98936.66;5090867;28;20025;-43
2023/08/02 09:01:45;;;;;;;7.35;6.65;;;;;;;37.71;29.42;98946.13;5090426;28;20038;-43
2023/08/02 09:04:10;;;;;;;7.57;6.35;;;;;;;37.67;29.17;98931.50;5090558;28;20384;-43
2023/08/02 09:06:36;;;;;;;7.63;6.93;;;;;;;37.69;28.94;98936.66;5090727;28;20031;-44
2023/08/02 09:09:02;;;;;;;8.20;7.40;;;;;;;37.90;28.83;98930.16;5090271;28;20027;-45
2023/08/02 09:11:28;;;;;;;7.10;6.40;;;;;;;37.85;29.02;98933.34;5090742;28;20020;-43
2023/08/02 09:14:13;;;;;;;6.72;6.13;;;;;;;37.85;29.12;98928.63;5090354;28;20079;-43
2023/08/02 09:17:00;;;;;;;8.10;6.78;;;;;;;37.74;29.36;98936.22;5090650;28;20477;-44
2023/08/02 09:19:31;;;;;;;6.57;5.97;;;;;;;38.21;28.61;98942.22;5090664;28;20039;-43
2023/08/02 09:22:15;;;;;;;7.40;6.70;;;;;;;38.36;28.07;98929.00;5090466;28;20028;-42
2023/08/02 09:24:44;;;;;;;7.90;6.90;;;;;;;38.05;28.47;98926.06;5090395;28;20470;-44
2023/08/02 09:27:19;;;;;;;8.43;6.80;;;;;;;37.94;28.44;98934.47;5090303;28;20049;-44
2023/08/02 09:29:48;;;;;;;7.93;6.45;;;;;;;37.93;28.20;98927.34;5089766;28;20344;-44
2023/08/02 09:32:15;;;;;;;7.13;6.43;;;;;;;37.52;29.07;98928.00;5090238;28;20024;-43
2023/08/02 09:34:48;;;;;;;7.38;6.57;;;;;;;37.84;29.10;98929.81;5090698;28;20043;-43
2023/08/02 09:37:16;;;;;;;9.55;7.25;;;;;;;38.13;28.46;98915.72;5090096;28;20180;-43
2023/08/02 09:39:50;;;;;;;6.97;6.30;;;;;;;38.30;28.58;98925.09;5090284;28;20026;-44
2023/08/02 09:42:17;;;;;;;7.20;6.25;;;;;;;38.48;27.54;98925.72;5090240;28;20028;-45
2023/08/02 09:44:50;;;;;;;7.53;6.40;;;;;;;38.54;27.67;98917.75;5090334;28;20035;-43
2023/08/02 09:47:15;;;;;;;8.77;6.30;;;;;;;38.49;27.95;98915.38;5090409;28;20494;-46
2023/08/02 09:49:41;;;;;;;8.10;6.45;;;;;;;38.62;28.18;98912.91;5090161;28;20072;-44
2023/08/02 09:52:10;;;;;;;7.28;6.47;;;;;;;38.10;28.44;98922.09;5090100;28;20032;-43
2023/08/02 09:54:35;;;;;;;7.03;6.32;;;;;;;38.16;27.86;98911.31;5090094;28;20072;-45
2023/08/02 09:57:02;;;;;;;7.88;6.15;;;;;;;38.06;28.47;98901.84;5090205;28;20028;-44
2023/08/02 09:59:31;;;;;;;6.95;6.25;;;;;;;38.06;28.63;98899.09;5090045;28;20405;-44
2023/08/02 10:01:58;;;;;;;7.55;6.40;;;;;;;38.39;28.30;98892.06;5072319;28;20082;-45
2023/08/02 10:04:25;;;;;;;8.73;6.05;;;;;;;38.57;27.74;98882.78;5090186;28;20028;-43
2023/08/02 10:07:00;;;;;;;6.53;5.88;;;;;;;38.60;27.70;98882.75;5090321;28;20487;-45
2023/08/02 10:09:30;;;;;;;7.15;6.45;;;;;;;38.05;28.26;98876.09;5090411;28;20035;-46
2023/08/02 10:12:08;;;;;;;7.63;6.20;;;;;;;38.25;28.42;98881.91;5090267;28;20024;-43
2023/08/02 10:14:34;;;;;;;8.23;6.60;;;;;;;38.28;28.21;98866.38;5090258;28;20102;-43
2023/08/02 10:17:01;;;;;;;7.00;6.32;;;;;;;38.36;28.19;98876.22;5090059;28;20765;-43
2023/08/02 10:19:28;;;;;;;7.05;6.22;;;;;;;38.46;27.13;98852.28;5090288;28;20036;-44
2023/08/02 10:21:56;;;;;;;7.23;6.27;;;;;;;38.37;27.73;98869.47;5090017;28;20368;-45
2023/08/02 10:24:24;;;;;;;;;;;;;;;38.42;27.51;98868.22;5090268;28;20023;-44
2023/08/02 10:26:49;;;;;;;7.30;6.20;;;;;;;38.45;27.01;98857.06;5090234;28;19908;-43
2023/08/02 10:29:15;;;;;;;6.63;5.97;;;;;;;38.37;27.25;98857.59;5089983;28;20127;-45
2023/08/02 10:31:41;;;;;;;6.40;5.80;;;;;;;38.58;27.66;98851.81;5089705;28;20443;-43
2023/08/02 10:34:35;;;;;;;7.65;6.15;;;;;;;39.01;26.42;98842.94;5089702;28;20457;-43
2023/08/02 10:37:02;;;;;;;6.78;6.10;;;;;;;39.30;25.92;98846.13;5078124;28;20055;-43
2023/08/02 10:39:45;;;;;;;6.60;5.90;;;;;;;38.64;26.08;98839.03;5090053;28;20027;-42
2023/08/02 10:42:12;;;;;;;6.20;5.60;;;;;;;38.29;26.31;98832.66;5092797;28;20024;-44
2023/08/02 10:44:57;;;;;;;7.15;6.00;;;;;;;38.70;26.67;98831.00;5093398;28;20036;-42
2023/08/02 10:47:30;;;;;;;6.45;5.82;;;;;;;39.10;25.88;98828.53;5093202;28;20404;-42
2023/08/02 10:49:57;;;;;;;7.03;6.32;;;;;;;39.44;26.04;98822.88;5092999;28;20375;-44
2023/08/02 10:52:38;;;;;;;7.03;6.32;;;;;;;39.84;25.65;98816.66;5093401;28;20024;-44
2023/08/02 10:55:20;;;;;;;6.45;5.85;;;;;;;39.68;24.80;98822.91;5093431;28;20032;-45
2023/08/02 10:57:54;;;;;;;8.90;6.55;;;;;;;39.14;25.76;98822.91;5093546;28;20053;-44
2023/08/02 11:00:25;;;;;;;6.50;5.90;;;;;;;38.81;26.10;98820.56;5093120;28;20081;-45
2023/08/02 11:02:53;;;;;;;6.63;6.03;;;;;;;38.74;26.96;98801.19;5093076;28;20062;-44
2023/08/02 11:05:43;;;;;;;7.97;6.80;;;;;;;38.94;26.37;98818.00;5092786;28;20024;-43
2023/08/02 11:08:10;;;;;;;10.32;6.60;;;;;;;38.90;26.88;98804.16;5093098;28;20028;-42
2023/08/02 11:10:50;;;;;;;8.77;6.50;;;;;;;39.23;26.36;98814.84;5093025;28;20028;-44
2023/08/02 11:13:16;;;;;;;11.55;6.45;;;;;;;38.64;26.52;98808.44;5092821;28;20031;-48
2023/08/02 11:15:42;;;;;;;7.82;6.50;;;;;;;38.27;26.92;98803.69;5093259;28;20110;-44
2023/08/02 11:18:08;;;;;;;7.20;6.50;;;;;;;38.59;27.40;98808.91;5093027;28;20466;-44
2023/08/02 11:20:37;;;;;;;6.75;6.13;;;;;;;38.98;26.47;98795.72;5092934;28;20502;-45
2023/08/02 11:23:19;;;;;;;7.40;6.63;;;;;;;38.73;26.48;98794.06;5093025;28;20032;-44
2023/08/02 11:25:47;;;;;;;7.28;6.40;;;;;;;38.47;26.97;98792.75;5092435;28;20031;-45
2023/08/02 11:28:13;;;;;;;9.68;7.00;;;;;;;38.38;26.78;98792.47;5092334;28;20027;-43
2023/08/02 11:30:38;;;;;;;7.50;6.80;;;;;;;38.23;26.99;98800.16;5092167;28;20042;-47